Fults, Illinois
Current Conditions -  °F | °C
As of 10:08 AM on Friday 24 Oct 2014 (Local Time) from KCPS Reporting Station
Overcast Overcast  
Wind Chill: 58°   Ceiling: 1600
Heat Index: 58°   Visibility: 10mi
Dew Point: 53°   Wind: 5mph
Humidity: 84%   Direction: 250°WSW
Pressure: 30.13"   Gusts: NA
Location:  38.17°N, 90.22°W
Report Text: KCPS 241508Z 25004KT 10SM OVC016 14/12 A3013 RMK AO2 T01440117
Loading
Personal Weather Stations






























Interactive Weather Map
Tropical Storm Tracking
New forecast layout! Learn more

10-Day Weather Forecast

Advertisements
Track Severe Weather on mobile